sensor_id;sensor_type;location;lat;lon;timestamp;P1;durP1;ratioP1;P2;durP2;ratioP2
22606;SDS011;11470;20.968;105.834;2022-08-01T00:03:29;10.55;;;7.20;;
22606;SDS011;11470;20.968;105.834;2022-08-01T00:08:35;11.23;;;8.57;;
22606;SDS011;11470;20.968;105.834;2022-08-01T00:13:41;11.02;;;7.93;;
22606;SDS011;11470;20.968;105.834;2022-08-01T00:18:48;14.45;;;7.90;;
22606;SDS011;11470;20.968;105.834;2022-08-01T00:23:56;13.82;;;8.43;;
22606;SDS011;11470;20.968;105.834;2022-08-01T00:29:03;10.13;;;7.78;;
22606;SDS011;11470;20.968;105.834;2022-08-01T00:34:29;12.13;;;8.52;;
22606;SDS011;11470;20.968;105.834;2022-08-01T00:39:36;11.80;;;7.65;;
22606;SDS011;11470;20.968;105.834;2022-08-01T00:44:42;10.85;;;8.00;;
22606;SDS011;11470;20.968;105.834;2022-08-01T00:49:49;13.68;;;8.50;;
22606;SDS011;11470;20.968;105.834;2022-08-01T00:54:55;11.65;;;8.15;;
22606;SDS011;11470;20.968;105.834;2022-08-01T01:00:03;11.95;;;8.30;;
22606;SDS011;11470;20.968;105.834;2022-08-01T01:05:11;12.93;;;9.57;;
22606;SDS011;11470;20.968;105.834;2022-08-01T01:10:40;11.77;;;7.78;;
22606;SDS011;11470;20.968;105.834;2022-08-01T01:15:57;16.90;;;11.40;;
22606;SDS011;11470;20.968;105.834;2022-08-01T01:31:53;19.20;;;12.40;;
22606;SDS011;11470;20.968;105.834;2022-08-01T01:37:01;20.92;;;14.40;;
22606;SDS011;11470;20.968;105.834;2022-08-01T01:42:12;19.48;;;12.63;;
22606;SDS011;11470;20.968;105.834;2022-08-01T01:47:20;21.45;;;12.93;;
22606;SDS011;11470;20.968;105.834;2022-08-01T01:52:28;23.48;;;16.33;;
22606;SDS011;11470;20.968;105.834;2022-08-01T01:57:37;24.13;;;16.08;;
22606;SDS011;11470;20.968;105.834;2022-08-01T02:02:46;23.50;;;16.13;;
22606;SDS011;11470;20.968;105.834;2022-08-01T02:07:54;25.48;;;15.60;;
22606;SDS011;11470;20.968;105.834;2022-08-01T02:13:03;20.27;;;14.15;;
22606;SDS011;11470;20.968;105.834;2022-08-01T02:18:10;20.17;;;14.73;;
22606;SDS011;11470;20.968;105.834;2022-08-01T02:23:17;20.17;;;13.80;;
22606;SDS011;11470;20.968;105.834;2022-08-01T02:28:29;17.42;;;11.73;;
22606;SDS011;11470;20.968;105.834;2022-08-01T02:33:45;20.75;;;14.00;;
22606;SDS011;11470;20.968;105.834;2022-08-01T02:38:56;26.42;;;16.60;;
22606;SDS011;11470;20.968;105.834;2022-08-01T02:44:06;21.08;;;12.02;;
22606;SDS011;11470;20.968;105.834;2022-08-01T02:49:14;20.02;;;14.73;;
22606;SDS011;11470;20.968;105.834;2022-08-01T02:54:23;16.80;;;11.52;;
22606;SDS011;11470;20.968;105.834;2022-08-01T02:59:31;27.15;;;14.43;;
22606;SDS011;11470;20.968;105.834;2022-08-01T03:04:41;17.98;;;12.48;;
22606;SDS011;11470;20.968;105.834;2022-08-01T03:09:51;21.15;;;12.77;;
22606;SDS011;11470;20.968;105.834;2022-08-01T03:14:58;16.48;;;10.65;;
22606;SDS011;11470;20.968;105.834;2022-08-01T03:20:07;14.43;;;10.98;;
22606;SDS011;11470;20.968;105.834;2022-08-01T03:25:17;22.73;;;13.77;;
22606;SDS011;11470;20.968;105.834;2022-08-01T03:30:25;18.40;;;10.95;;
22606;SDS011;11470;20.968;105.834;2022-08-01T03:35:48;11.73;;;10.05;;
22606;SDS011;11470;20.968;105.834;2022-08-01T03:41:09;14.00;;;10.48;;
22606;SDS011;11470;20.968;105.834;2022-08-01T03:46:22;11.32;;;9.90;;
22606;SDS011;11470;20.968;105.834;2022-08-01T03:51:38;14.80;;;10.60;;
22606;SDS011;11470;20.968;105.834;2022-08-01T03:56:45;11.63;;;9.15;;
22606;SDS011;11470;20.968;105.834;2022-08-01T04:01:53;14.02;;;9.25;;
22606;SDS011;11470;20.968;105.834;2022-08-01T04:07:01;12.15;;;9.05;;
22606;SDS011;11470;20.968;105.834;2022-08-01T04:12:14;12.18;;;8.23;;
22606;SDS011;11470;20.968;105.834;2022-08-01T04:17:20;15.43;;;8.80;;
22606;SDS011;11470;20.968;105.834;2022-08-01T04:22:26;14.27;;;8.90;;
22606;SDS011;11470;20.968;105.834;2022-08-01T04:27:40;15.63;;;9.75;;
22606;SDS011;11470;20.968;105.834;2022-08-01T04:32:54;17.70;;;11.88;;
22606;SDS011;11470;20.968;105.834;2022-08-01T04:38:01;12.68;;;10.55;;
22606;SDS011;11470;20.968;105.834;2022-08-01T04:43:09;19.85;;;11.38;;
22606;SDS011;11470;20.968;105.834;2022-08-01T04:48:17;17.58;;;13.18;;
22606;SDS011;11470;20.968;105.834;2022-08-01T04:53:25;14.55;;;10.75;;
22606;SDS011;11470;20.968;105.834;2022-08-01T04:58:34;16.00;;;11.38;;
22606;SDS011;11470;20.968;105.834;2022-08-01T05:03:40;16.98;;;13.23;;
22606;SDS011;11470;20.968;105.834;2022-08-01T05:08:47;12.00;;;10.38;;
22606;SDS011;11470;20.968;105.834;2022-08-01T05:13:54;14.60;;;10.30;;
22606;SDS011;11470;20.968;105.834;2022-08-01T05:19:00;12.85;;;9.90;;
22606;SDS011;11470;20.968;105.834;2022-08-01T05:24:06;12.35;;;9.27;;
22606;SDS011;11470;20.968;105.834;2022-08-01T05:29:18;16.83;;;9.45;;
22606;SDS011;11470;20.968;105.834;2022-08-01T05:34:25;12.52;;;9.40;;
22606;SDS011;11470;20.968;105.834;2022-08-01T05:39:32;10.10;;;8.05;;
22606;SDS011;11470;20.968;105.834;2022-08-01T05:44:37;8.93;;;7.80;;
22606;SDS011;11470;20.968;105.834;2022-08-01T05:49:44;11.52;;;7.95;;
22606;SDS011;11470;20.968;105.834;2022-08-01T05:54:50;11.52;;;8.60;;
22606;SDS011;11470;20.968;105.834;2022-08-01T05:59:57;11.00;;;7.03;;
22606;SDS011;11470;20.968;105.834;2022-08-01T06:10:18;10.13;;;8.67;;
22606;SDS011;11470;20.968;105.834;2022-08-01T06:15:24;9.77;;;7.63;;
22606;SDS011;11470;20.968;105.834;2022-08-01T06:20:30;7.35;;;6.20;;
22606;SDS011;11470;20.968;105.834;2022-08-01T06:25:36;9.35;;;6.60;;
22606;SDS011;11470;20.968;105.834;2022-08-01T06:30:43;7.65;;;6.00;;
22606;SDS011;11470;20.968;105.834;2022-08-01T06:35:49;7.18;;;6.47;;
22606;SDS011;11470;20.968;105.834;2022-08-01T06:40:56;7.65;;;6.75;;
22606;SDS011;11470;20.968;105.834;2022-08-01T06:46:02;9.30;;;6.47;;
22606;SDS011;11470;20.968;105.834;2022-08-01T06:51:11;6.93;;;6.22;;
22606;SDS011;11470;20.968;105.834;2022-08-01T06:56:25;8.55;;;6.15;;
22606;SDS011;11470;20.968;105.834;2022-08-01T07:01:32;6.28;;;5.65;;
22606;SDS011;11470;20.968;105.834;2022-08-01T07:06:41;8.60;;;6.88;;
22606;SDS011;11470;20.968;105.834;2022-08-01T07:11:47;8.18;;;6.13;;
22606;SDS011;11470;20.968;105.834;2022-08-01T07:16:54;8.32;;;5.63;;
22606;SDS011;11470;20.968;105.834;2022-08-01T07:22:01;7.80;;;4.72;;
22606;SDS011;11470;20.968;105.834;2022-08-01T07:27:08;8.77;;;5.28;;
22606;SDS011;11470;20.968;105.834;2022-08-01T07:32:27;7.05;;;4.20;;
22606;SDS011;11470;20.968;105.834;2022-08-01T07:37:39;6.78;;;4.40;;
22606;SDS011;11470;20.968;105.834;2022-08-01T07:42:51;8.30;;;5.38;;
22606;SDS011;11470;20.968;105.834;2022-08-01T07:48:01;5.32;;;3.83;;
22606;SDS011;11470;20.968;105.834;2022-08-01T07:53:11;7.97;;;5.82;;
22606;SDS011;11470;20.968;105.834;2022-08-01T07:58:17;8.88;;;6.63;;
22606;SDS011;11470;20.968;105.834;2022-08-01T08:03:24;8.32;;;6.53;;
22606;SDS011;11470;20.968;105.834;2022-08-01T08:08:30;9.02;;;6.90;;
22606;SDS011;11470;20.968;105.834;2022-08-01T08:13:38;11.88;;;6.72;;
22606;SDS011;11470;20.968;105.834;2022-08-01T08:18:44;8.55;;;6.72;;
22606;SDS011;11470;20.968;105.834;2022-08-01T08:23:51;7.07;;;6.25;;
22606;SDS011;11470;20.968;105.834;2022-08-01T08:29:17;9.18;;;5.70;;
22606;SDS011;11470;20.968;105.834;2022-08-01T08:34:55;8.27;;;5.63;;
22606;SDS011;11470;20.968;105.834;2022-08-01T08:40:04;7.93;;;6.00;;
22606;SDS011;11470;20.968;105.834;2022-08-01T08:45:11;7.28;;;5.75;;
22606;SDS011;11470;20.968;105.834;2022-08-01T08:50:20;10.00;;;5.15;;
22606;SDS011;11470;20.968;105.834;2022-08-01T08:55:27;10.93;;;7.97;;
22606;SDS011;11470;20.968;105.834;2022-08-01T09:00:55;7.55;;;6.13;;
22606;SDS011;11470;20.968;105.834;2022-08-01T09:06:01;6.82;;;5.88;;
22606;SDS011;11470;20.968;105.834;2022-08-01T09:11:25;50.38;;;28.80;;
22606;SDS011;11470;20.968;105.834;2022-08-01T09:16:32;10.40;;;7.40;;
22606;SDS011;11470;20.968;105.834;2022-08-01T09:21:39;8.80;;;5.88;;
22606;SDS011;11470;20.968;105.834;2022-08-01T09:27:16;14.40;;;9.23;;
22606;SDS011;11470;20.968;105.834;2022-08-01T09:32:24;44.88;;;27.63;;
22606;SDS011;11470;20.968;105.834;2022-08-01T09:37:37;24.80;;;16.77;;
22606;SDS011;11470;20.968;105.834;2022-08-01T09:42:49;18.80;;;14.77;;
22606;SDS011;11470;20.968;105.834;2022-08-01T09:48:17;10.98;;;8.55;;
22606;SDS011;11470;20.968;105.834;2022-08-01T09:53:47;15.98;;;10.68;;
22606;SDS011;11470;20.968;105.834;2022-08-01T09:58:57;16.00;;;12.73;;
22606;SDS011;11470;20.968;105.834;2022-08-01T10:04:17;14.45;;;9.55;;
22606;SDS011;11470;20.968;105.834;2022-08-01T10:09:29;12.38;;;8.70;;
22606;SDS011;11470;20.968;105.834;2022-08-01T10:14:43;13.50;;;8.60;;
22606;SDS011;11470;20.968;105.834;2022-08-01T10:19:52;17.67;;;10.30;;
22606;SDS011;11470;20.968;105.834;2022-08-01T10:25:02;17.98;;;12.73;;
22606;SDS011;11470;20.968;105.834;2022-08-01T10:30:10;24.52;;;18.17;;
22606;SDS011;11470;20.968;105.834;2022-08-01T10:35:27;14.43;;;11.25;;
22606;SDS011;11470;20.968;105.834;2022-08-01T10:40:50;15.02;;;11.13;;
22606;SDS011;11470;20.968;105.834;2022-08-01T10:45:57;17.58;;;10.38;;
22606;SDS011;11470;20.968;105.834;2022-08-01T10:51:05;13.30;;;8.90;;
22606;SDS011;11470;20.968;105.834;2022-08-01T10:56:23;16.50;;;11.18;;
22606;SDS011;11470;20.968;105.834;2022-08-01T11:01:44;13.57;;;10.32;;
22606;SDS011;11470;20.968;105.834;2022-08-01T11:07:08;14.90;;;9.57;;
22606;SDS011;11470;20.968;105.834;2022-08-01T11:12:39;14.43;;;10.07;;
22606;SDS011;11470;20.968;105.834;2022-08-01T11:17:47;13.88;;;9.80;;
22606;SDS011;11470;20.968;105.834;2022-08-01T11:39:34;9.98;;;8.30;;
22606;SDS011;11470;20.968;105.834;2022-08-01T11:44:21;18.05;;;11.57;;
22606;SDS011;11470;20.968;105.834;2022-08-01T11:54:53;10.23;;;8.63;;
22606;SDS011;11470;20.968;105.834;2022-08-01T12:00:13;11.93;;;9.82;;
22606;SDS011;11470;20.968;105.834;2022-08-01T12:05:22;12.30;;;9.43;;
22606;SDS011;11470;20.968;105.834;2022-08-01T12:10:34;15.10;;;10.45;;
22606;SDS011;11470;20.968;105.834;2022-08-01T12:15:51;14.32;;;9.68;;
22606;SDS011;11470;20.968;105.834;2022-08-01T12:21:02;18.48;;;10.15;;
22606;SDS011;11470;20.968;105.834;2022-08-01T12:26:09;14.63;;;9.98;;
22606;SDS011;11470;20.968;105.834;2022-08-01T12:31:31;19.15;;;12.07;;
22606;SDS011;11470;20.968;105.834;2022-08-01T12:36:40;16.38;;;10.40;;
22606;SDS011;11470;20.968;105.834;2022-08-01T12:41:46;12.63;;;9.18;;
22606;SDS011;11470;20.968;105.834;2022-08-01T12:46:53;18.73;;;10.88;;
22606;SDS011;11470;20.968;105.834;2022-08-01T12:51:59;19.20;;;12.13;;
22606;SDS011;11470;20.968;105.834;2022-08-01T12:57:21;19.85;;;12.00;;
22606;SDS011;11470;20.968;105.834;2022-08-01T13:02:32;17.42;;;11.25;;
22606;SDS011;11470;20.968;105.834;2022-08-01T13:07:49;21.88;;;13.15;;
22606;SDS011;11470;20.968;105.834;2022-08-01T13:12:58;24.17;;;14.38;;
22606;SDS011;11470;20.968;105.834;2022-08-01T13:23:35;26.48;;;14.52;;
22606;SDS011;11470;20.968;105.834;2022-08-01T13:29:05;23.00;;;13.15;;
22606;SDS011;11470;20.968;105.834;2022-08-01T13:34:34;21.42;;;13.10;;
22606;SDS011;11470;20.968;105.834;2022-08-01T13:39:44;19.10;;;12.25;;
22606;SDS011;11470;20.968;105.834;2022-08-01T13:44:51;29.42;;;16.05;;
22606;SDS011;11470;20.968;105.834;2022-08-01T13:49:58;28.02;;;15.43;;
22606;SDS011;11470;20.968;105.834;2022-08-01T13:55:06;22.10;;;13.75;;
22606;SDS011;11470;20.968;105.834;2022-08-01T14:00:20;33.15;;;17.27;;
22606;SDS011;11470;20.968;105.834;2022-08-01T14:05:26;27.02;;;16.73;;
22606;SDS011;11470;20.968;105.834;2022-08-01T14:10:33;32.03;;;16.00;;
22606;SDS011;11470;20.968;105.834;2022-08-01T14:15:41;31.55;;;15.55;;
22606;SDS011;11470;20.968;105.834;2022-08-01T14:20:48;28.73;;;15.63;;
22606;SDS011;11470;20.968;105.834;2022-08-01T14:25:57;27.08;;;15.98;;
22606;SDS011;11470;20.968;105.834;2022-08-01T14:31:13;26.17;;;14.73;;
22606;SDS011;11470;20.968;105.834;2022-08-01T14:36:19;24.80;;;15.60;;
22606;SDS011;11470;20.968;105.834;2022-08-01T14:41:33;31.83;;;16.02;;
22606;SDS011;11470;20.968;105.834;2022-08-01T14:46:39;28.67;;;16.08;;
22606;SDS011;11470;20.968;105.834;2022-08-01T14:52:00;28.90;;;16.25;;
22606;SDS011;11470;20.968;105.834;2022-08-01T14:57:07;26.80;;;16.73;;
22606;SDS011;11470;20.968;105.834;2022-08-01T15:02:13;29.80;;;19.02;;
22606;SDS011;11470;20.968;105.834;2022-08-01T15:07:21;28.17;;;16.58;;
22606;SDS011;11470;20.968;105.834;2022-08-01T15:19:55;33.73;;;21.00;;
22606;SDS011;11470;20.968;105.834;2022-08-01T15:25:02;35.88;;;24.27;;
22606;SDS011;11470;20.968;105.834;2022-08-01T15:30:09;38.28;;;23.17;;
22606;SDS011;11470;20.968;105.834;2022-08-01T15:35:15;33.50;;;22.55;;
22606;SDS011;11470;20.968;105.834;2022-08-01T15:40:24;29.13;;;21.27;;
22606;SDS011;11470;20.968;105.834;2022-08-01T15:45:42;40.42;;;28.17;;
22606;SDS011;11470;20.968;105.834;2022-08-01T15:50:51;41.08;;;26.83;;
22606;SDS011;11470;20.968;105.834;2022-08-01T15:55:57;44.15;;;29.08;;
22606;SDS011;11470;20.968;105.834;2022-08-01T16:01:03;38.42;;;29.45;;
22606;SDS011;11470;20.968;105.834;2022-08-01T16:06:12;42.90;;;32.08;;
22606;SDS011;11470;20.968;105.834;2022-08-01T16:11:19;45.10;;;30.77;;
22606;SDS011;11470;20.968;105.834;2022-08-01T16:16:27;45.33;;;32.47;;
22606;SDS011;11470;20.968;105.834;2022-08-01T16:21:34;40.22;;;34.63;;
22606;SDS011;11470;20.968;105.834;2022-08-01T16:26:40;42.20;;;36.55;;
22606;SDS011;11470;20.968;105.834;2022-08-01T16:31:46;42.90;;;33.35;;
22606;SDS011;11470;20.968;105.834;2022-08-01T16:37:12;45.45;;;35.15;;
22606;SDS011;11470;20.968;105.834;2022-08-01T16:42:18;47.05;;;34.60;;
22606;SDS011;11470;20.968;105.834;2022-08-01T16:47:29;45.53;;;35.35;;
22606;SDS011;11470;20.968;105.834;2022-08-01T16:52:35;40.63;;;32.70;;
22606;SDS011;11470;20.968;105.834;2022-08-01T16:57:43;42.20;;;30.83;;
22606;SDS011;11470;20.968;105.834;2022-08-01T17:02:49;38.95;;;27.80;;
22606;SDS011;11470;20.968;105.834;2022-08-01T17:07:56;46.60;;;30.88;;
22606;SDS011;11470;20.968;105.834;2022-08-01T17:13:02;40.53;;;31.73;;
22606;SDS011;11470;20.968;105.834;2022-08-01T17:18:11;47.28;;;37.45;;
22606;SDS011;11470;20.968;105.834;2022-08-01T17:23:17;48.92;;;38.28;;
22606;SDS011;11470;20.968;105.834;2022-08-01T17:28:26;51.33;;;40.30;;
22606;SDS011;11470;20.968;105.834;2022-08-01T17:33:33;50.30;;;34.92;;
22606;SDS011;11470;20.968;105.834;2022-08-01T17:38:48;51.67;;;40.10;;
22606;SDS011;11470;20.968;105.834;2022-08-01T17:43:54;48.97;;;39.50;;
22606;SDS011;11470;20.968;105.834;2022-08-01T17:49:01;54.90;;;39.88;;
22606;SDS011;11470;20.968;105.834;2022-08-01T17:54:11;52.28;;;39.40;;
22606;SDS011;11470;20.968;105.834;2022-08-01T17:59:16;44.95;;;33.08;;
22606;SDS011;11470;20.968;105.834;2022-08-01T18:04:22;50.35;;;37.45;;
22606;SDS011;11470;20.968;105.834;2022-08-01T18:09:29;56.85;;;38.10;;
22606;SDS011;11470;20.968;105.834;2022-08-01T18:14:45;50.90;;;37.65;;
22606;SDS011;11470;20.968;105.834;2022-08-01T18:19:51;55.45;;;39.20;;
22606;SDS011;11470;20.968;105.834;2022-08-01T18:24:57;43.55;;;34.25;;
22606;SDS011;11470;20.968;105.834;2022-08-01T18:30:10;50.40;;;33.33;;
22606;SDS011;11470;20.968;105.834;2022-08-01T18:35:16;47.53;;;33.45;;
22606;SDS011;11470;20.968;105.834;2022-08-01T18:40:26;45.42;;;31.10;;
22606;SDS011;11470;20.968;105.834;2022-08-01T18:45:32;39.65;;;30.55;;
22606;SDS011;11470;20.968;105.834;2022-08-01T18:50:44;35.28;;;26.08;;
22606;SDS011;11470;20.968;105.834;2022-08-01T18:55:50;39.20;;;29.90;;
22606;SDS011;11470;20.968;105.834;2022-08-01T19:00:56;32.97;;;26.67;;
22606;SDS011;11470;20.968;105.834;2022-08-01T19:06:02;42.25;;;28.52;;
22606;SDS011;11470;20.968;105.834;2022-08-01T19:11:09;38.80;;;26.60;;
22606;SDS011;11470;20.968;105.834;2022-08-01T19:16:15;36.67;;;26.13;;
22606;SDS011;11470;20.968;105.834;2022-08-01T19:21:21;35.85;;;26.83;;
22606;SDS011;11470;20.968;105.834;2022-08-01T19:26:28;35.78;;;28.05;;
22606;SDS011;11470;20.968;105.834;2022-08-01T19:31:38;36.50;;;24.30;;
22606;SDS011;11470;20.968;105.834;2022-08-01T19:36:52;40.28;;;27.70;;
22606;SDS011;11470;20.968;105.834;2022-08-01T19:42:00;31.52;;;24.17;;
22606;SDS011;11470;20.968;105.834;2022-08-01T19:47:07;30.67;;;23.63;;
22606;SDS011;11470;20.968;105.834;2022-08-01T19:52:14;23.58;;;19.20;;
22606;SDS011;11470;20.968;105.834;2022-08-01T19:57:23;27.10;;;19.77;;
22606;SDS011;11470;20.968;105.834;2022-08-01T20:02:47;34.78;;;21.63;;
22606;SDS011;11470;20.968;105.834;2022-08-01T20:07:57;24.92;;;20.10;;
22606;SDS011;11470;20.968;105.834;2022-08-01T20:13:04;30.17;;;22.02;;
22606;SDS011;11470;20.968;105.834;2022-08-01T20:18:13;26.52;;;20.38;;
22606;SDS011;11470;20.968;105.834;2022-08-01T20:23:20;34.85;;;25.58;;
22606;SDS011;11470;20.968;105.834;2022-08-01T20:28:28;31.77;;;21.67;;
22606;SDS011;11470;20.968;105.834;2022-08-01T20:33:38;35.05;;;23.27;;
22606;SDS011;11470;20.968;105.834;2022-08-01T20:38:45;38.50;;;24.90;;
22606;SDS011;11470;20.968;105.834;2022-08-01T20:43:53;34.90;;;24.00;;
22606;SDS011;11470;20.968;105.834;2022-08-01T20:49:01;28.48;;;19.77;;
22606;SDS011;11470;20.968;105.834;2022-08-01T20:54:07;30.08;;;21.73;;
22606;SDS011;11470;20.968;105.834;2022-08-01T21:05:08;30.75;;;21.20;;
22606;SDS011;11470;20.968;105.834;2022-08-01T21:10:16;30.42;;;23.25;;
22606;SDS011;11470;20.968;105.834;2022-08-01T21:20:39;27.13;;;18.85;;
22606;SDS011;11470;20.968;105.834;2022-08-01T21:26:11;28.50;;;21.70;;
22606;SDS011;11470;20.968;105.834;2022-08-01T21:31:18;31.92;;;20.90;;
22606;SDS011;11470;20.968;105.834;2022-08-01T21:36:25;31.25;;;20.75;;
22606;SDS011;11470;20.968;105.834;2022-08-01T21:41:32;31.75;;;22.58;;
22606;SDS011;11470;20.968;105.834;2022-08-01T21:46:59;30.05;;;21.17;;
22606;SDS011;11470;20.968;105.834;2022-08-01T21:52:09;33.03;;;22.73;;
22606;SDS011;11470;20.968;105.834;2022-08-01T21:57:23;30.75;;;21.27;;
22606;SDS011;11470;20.968;105.834;2022-08-01T22:02:49;29.92;;;20.38;;
22606;SDS011;11470;20.968;105.834;2022-08-01T22:08:08;30.48;;;21.92;;
22606;SDS011;11470;20.968;105.834;2022-08-01T22:13:15;32.50;;;21.90;;
22606;SDS011;11470;20.968;105.834;2022-08-01T22:18:21;32.70;;;22.58;;
22606;SDS011;11470;20.968;105.834;2022-08-01T22:23:27;27.65;;;20.10;;
22606;SDS011;11470;20.968;105.834;2022-08-01T22:28:34;29.85;;;21.88;;
22606;SDS011;11470;20.968;105.834;2022-08-01T22:33:41;31.20;;;21.55;;
22606;SDS011;11470;20.968;105.834;2022-08-01T22:38:49;31.65;;;21.52;;
22606;SDS011;11470;20.968;105.834;2022-08-01T22:44:08;29.27;;;22.13;;
22606;SDS011;11470;20.968;105.834;2022-08-01T22:49:32;28.92;;;23.17;;
22606;SDS011;11470;20.968;105.834;2022-08-01T22:54:39;32.72;;;24.88;;
22606;SDS011;11470;20.968;105.834;2022-08-01T23:00:20;35.95;;;27.30;;
22606;SDS011;11470;20.968;105.834;2022-08-01T23:05:20;37.00;;;26.23;;
22606;SDS011;11470;20.968;105.834;2022-08-01T23:10:26;33.70;;;22.92;;
22606;SDS011;11470;20.968;105.834;2022-08-01T23:15:32;33.53;;;23.25;;
22606;SDS011;11470;20.968;105.834;2022-08-01T23:20:39;38.45;;;28.42;;
22606;SDS011;11470;20.968;105.834;2022-08-01T23:25:46;37.30;;;24.83;;
22606;SDS011;11470;20.968;105.834;2022-08-01T23:30:53;38.17;;;27.52;;
22606;SDS011;11470;20.968;105.834;2022-08-01T23:35:59;32.72;;;24.02;;
22606;SDS011;11470;20.968;105.834;2022-08-01T23:41:07;29.38;;;22.02;;
22606;SDS011;11470;20.968;105.834;2022-08-01T23:46:18;36.65;;;23.48;;
22606;SDS011;11470;20.968;105.834;2022-08-01T23:51:24;31.45;;;21.88;;
22606;SDS011;11470;20.968;105.834;2022-08-01T23:56:30;34.90;;;25.60;;
